NCAR-RAP Real-Time Weather Data

Output produced by METARs form (22 June 2018  20:49 UTC)
found at http://weather.rap.ucar.edu/surface/
 
Conditions at: KTPA observed 22 June 2018  19:53 UTC
Temperature: 32.8°C (91°F)
Dewpoint: 22.8°C (73°F) [RH = 56%]
Pressure (altimeter): 29.96 inches Hg (1014.6 mb)
[Sea-level pressure: 1014.4 mb]
Winds: from the W (270 degrees) at 13 MPH (11 knots; 5.7 m/s)
gusting to 22 MPH (19 knots; 9.9 m/s)
Visibility: 10 or more miles (16+ km)
Ceiling: at least 12,000 feet AGL
Clouds: few clouds at 3000 feet AGL
few clouds at 24000 feet AGL
Present Weather: no significant weather observed at this time
KTPA 221953Z COR 27011G19KT 10SM FEW030TCU FEW240 33/23 A2996 RMK AO2 LTG DSNT NE AND E SLP144 CB DSNT NE AND SE-S TCU E-S AND NW-N T03280228

Conditions at: KTPA observed 22 June 2018  17:53 UTC
Temperature: 32.8°C (91°F)
Dewpoint: 23.3°C (74°F) [RH = 58%]
Pressure (altimeter): 29.98 inches Hg (1015.3 mb)
[Sea-level pressure: 1015.3 mb]
Winds: from the W (260 degrees) at 14 MPH (12 knots; 6.2 m/s)
gusting to 22 MPH (19 knots; 9.9 m/s)
Visibility: 10 or more miles (16+ km)
Ceiling: at least 12,000 feet AGL
Clouds: scattered clouds at 3000 feet AGL
scattered clouds at 25000 feet AGL
Present Weather: no significant weather observed at this time
KTPA 221753Z 26012G19KT 10SM SCT030 SCT250 33/23 A2998 RMK AO2 SLP153 60036 T03280233 10328 20256 58007

Conditions at: KTPA observed 22 June 2018  16:53 UTC
Temperature: 31.7°C (89°F)
Dewpoint: 23.9°C (75°F) [RH = 63%]
Pressure (altimeter): 30.00 inches Hg (1016.0 mb)
[Sea-level pressure: 1015.7 mb]
Winds: from the WSW (250 degrees) at 12 MPH (10 knots; 5.2 m/s)
Visibility: 10 or more miles (16+ km)
Ceiling: at least 12,000 feet AGL
Clouds: scattered clouds at 3000 feet AGL
scattered clouds at 25000 feet AGL
Present Weather: no significant weather observed at this time
KTPA 221653Z 25010KT 10SM SCT030TCU SCT250 32/24 A3000 RMK AO2 SLP157 TCU N-E AND S T03170239

Conditions at: KTPA observed 22 June 2018  15:53 UTC
Temperature: 31.1°C (88°F)
Dewpoint: 24.4°C (76°F) [RH = 68%]
Pressure (altimeter): 30.00 inches Hg (1016.0 mb)
[Sea-level pressure: 1015.7 mb]
Winds: from the WSW (250 degrees) at 10 MPH (9 knots; 4.7 m/s)
Visibility: 10 or more miles (16+ km)
Ceiling: at least 12,000 feet AGL
Clouds: scattered clouds at 2500 feet AGL
scattered clouds at 25000 feet AGL
Present Weather: no significant weather observed at this time
KTPA 221553Z 25009KT 10SM SCT025 SCT250 31/24 A3000 RMK AO2 SLP157 CB DSNT NE-E T03110244

Conditions at: KTPA observed 22 June 2018  14:53 UTC
Temperature: 28.3°C (83°F)
Dewpoint: 22.8°C (73°F) [RH = 72%]
Pressure (altimeter): 30.00 inches Hg (1016.0 mb)
[Sea-level pressure: 1016.0 mb]
Winds: from the W (270 degrees) at 8 MPH (7 knots; 3.6 m/s)
Visibility: 10 or more miles (16+ km)
Ceiling: 18000 feet AGL
Clouds: scattered clouds at 2500 feet AGL
broken clouds at 18000 feet AGL
broken clouds at 25000 feet AGL
Present Weather: no significant weather observed at this time
KTPA 221453Z 27007KT 10SM SCT025TCU BKN180 BKN250 28/23 A3000 RMK AO2 SLP160 CB DSNT E AND SE TCU S AND DSNT ALQDS SHRA DSNT E 60036 T02830228 51005

Conditions at: KTPA observed 22 June 2018  13:53 UTC
Temperature: 27.8°C (82°F)
Dewpoint: 25.0°C (77°F) [RH = 85%]
Pressure (altimeter): 30.00 inches Hg (1016.0 mb)
[Sea-level pressure: 1016.0 mb]
Winds: from the WSW (250 degrees) at 7 MPH (6 knots; 3.1 m/s)
Visibility: 8 miles (13 km)
Ceiling: 4500 feet AGL
Clouds: scattered clouds at 2500 feet AGL
broken clouds at 4500 feet AGL
broken clouds at 5500 feet AGL
broken clouds at 25000 feet AGL
Present Weather: no significant weather observed at this time
KTPA 221353Z 25006KT 8SM SCT025CB BKN045 BKN055 BKN250 28/25 A3000 RMK AO2 RAB24E50 SLP160 CB NE-S AND W-NW MOV E SHRA DSNT E P0036 T02780250

Conditions at: KTPA observed 22 June 2018  13:41 UTC
Temperature: 27.2°C (81°F)
Dewpoint: 23.9°C (75°F) [RH = 82%]
Pressure (altimeter): 30.00 inches Hg (1016.0 mb)
Winds: from the WSW (250 degrees) at 8 MPH (7 knots; 3.6 m/s)
Visibility: 4 miles (6 km)
Ceiling: 5500 feet AGL
Clouds: scattered clouds at 2200 feet AGL
broken clouds at 5500 feet AGL
broken clouds at 25000 feet AGL
Present Weather: -RA BR  (light rain, mist)
KTPA 221341Z 25007KT 4SM -RA BR SCT022CB BKN055 BKN250 27/24 A3000 RMK AO2 RAB24 CB N-S AND NW MOV E P0035 T02720239

Conditions at: KTPA observed 22 June 2018  13:28 UTC
Temperature: 29.0°C (84°F)
Dewpoint: 25.0°C (77°F) [RH = 79%]
Pressure (altimeter): 30.01 inches Hg (1016.3 mb)
Winds: from the NW (310 degrees) at 8 MPH (7 knots; 3.6 m/s)
Visibility: 8 miles (13 km)
Ceiling: 2000 feet AGL
Clouds: broken clouds at 2000 feet AGL
overcast cloud deck at 10000 feet AGL
Present Weather: -RA  (light rain)
KTPA 221328Z 31007KT 8SM -RA BKN020CB OVC100 29/25 A3001 RMK CB OHD MOV E

Conditions at: KTPA observed 22 June 2018  12:53 UTC
Temperature: 29.0°C (84°F)
Dewpoint: 25.0°C (77°F) [RH = 79%]
Pressure (altimeter): 30.01 inches Hg (1016.3 mb)
Winds: from the W (270 degrees) at 7 MPH (6 knots; 3.1 m/s)
Visibility: 10 or more miles (16+ km)
Ceiling: 10000 feet AGL
Clouds: scattered clouds at 2000 feet AGL
broken clouds at 10000 feet AGL
broken clouds at 25000 feet AGL
Present Weather: no significant weather observed at this time
KTPA 221253Z 27006KT 10SM SCT020CB BKN100 BKN250 29/25 A3001 RMK CB W-N MOV E

Conditions at: KTPA observed 22 June 2018  11:53 UTC
Temperature: 28.0°C (82°F)
Dewpoint: 25.0°C (77°F) [RH = 84%]
Pressure (altimeter): 29.99 inches Hg (1015.7 mb)
Winds: from the W (280 degrees) at 8 MPH (7 knots; 3.6 m/s)
Visibility: 10 or more miles (16+ km)
Ceiling: 8000 feet AGL
Clouds: scattered clouds at 2000 feet AGL
broken clouds at 8000 feet AGL
broken clouds at 25000 feet AGL
Present Weather: no significant weather observed at this time
KTPA 221153Z 28007KT 10SM SCT020CB BKN080 BKN250 28/25 A2999 RMK CB NW MOV E

Conditions at: KTPA observed 22 June 2018  10:53 UTC
Temperature: 28.0°C (82°F)
Dewpoint: 24.0°C (75°F) [RH = 79%]
Pressure (altimeter): 29.96 inches Hg (1014.6 mb)
Winds: from the W (270 degrees) at 8 MPH (7 knots; 3.6 m/s)
Visibility: 10 or more miles (16+ km)
Ceiling: 25000 feet AGL
Clouds: few clouds at 2000 feet AGL
scattered clouds at 10000 feet AGL
broken clouds at 25000 feet AGL
Present Weather: no significant weather observed at this time
KTPA 221053Z 27007KT 10SM FEW020 SCT100 BKN250 28/24 A2996

Conditions at: KTPA observed 22 June 2018  09:53 UTC
Temperature: 28.0°C (82°F)
Dewpoint: 24.0°C (75°F) [RH = 79%]
Pressure (altimeter): 29.95 inches Hg (1014.3 mb)
Winds: from the WSW (250 degrees) at 12 MPH (10 knots; 5.2 m/s)
Visibility: 10 or more miles (16+ km)
Ceiling: 25000 feet AGL
Clouds: few clouds at 10000 feet AGL
broken clouds at 25000 feet AGL
Present Weather: no significant weather observed at this time
KTPA 220953Z 25010KT 10SM FEW100 BKN250 28/24 A2995

Conditions at: KTPA observed 22 June 2018  08:53 UTC
Temperature: 28.0°C (82°F)
Dewpoint: 24.0°C (75°F) [RH = 79%]
Pressure (altimeter): 29.93 inches Hg (1013.6 mb)
Winds: from the W (260 degrees) at 10 MPH (9 knots; 4.7 m/s)
Visibility: 10 or more miles (16+ km)
Ceiling: 25000 feet AGL
Clouds: few clouds at 10000 feet AGL
broken clouds at 25000 feet AGL
Present Weather: no significant weather observed at this time
KTPA 220853Z 26009KT 10SM FEW100 BKN250 28/24 A2993

Conditions at: KTPA observed 22 June 2018  07:53 UTC
Temperature: 28.0°C (82°F)
Dewpoint: 24.0°C (75°F) [RH = 79%]
Pressure (altimeter): 29.93 inches Hg (1013.6 mb)
Winds: from the WSW (240 degrees) at 8 MPH (7 knots; 3.6 m/s)
Visibility: 10 or more miles (16+ km)
Ceiling: 25000 feet AGL
Clouds: few clouds at 10000 feet AGL
broken clouds at 25000 feet AGL
Present Weather: no significant weather observed at this time
KTPA 220753Z 24007KT 10SM FEW100 BKN250 28/24 A2993

Conditions at: KTPA observed 22 June 2018  06:53 UTC
Temperature: 28.0°C (82°F)
Dewpoint: 24.0°C (75°F) [RH = 79%]
Pressure (altimeter): 29.93 inches Hg (1013.6 mb)
Winds: from the WSW (240 degrees) at 8 MPH (7 knots; 3.6 m/s)
Visibility: 10 or more miles (16+ km)
Ceiling: 25000 feet AGL
Clouds: few clouds at 10000 feet AGL
broken clouds at 25000 feet AGL
Present Weather: no significant weather observed at this time
KTPA 220653Z 24007KT 10SM FEW100 BKN250 28/24 A2993

Conditions at: KTPA observed 22 June 2018  05:53 UTC
Temperature: 28.0°C (82°F)
Dewpoint: 24.0°C (75°F) [RH = 79%]
Pressure (altimeter): 29.95 inches Hg (1014.3 mb)
Winds: from the SW (230 degrees) at 8 MPH (7 knots; 3.6 m/s)
Visibility: 10 or more miles (16+ km)
Ceiling: 25000 feet AGL
Clouds: few clouds at 10000 feet AGL
broken clouds at 25000 feet AGL
Present Weather: no significant weather observed at this time
KTPA 220553Z 23007KT 10SM FEW100 BKN250 28/24 A2995

Conditions at: KTPA observed 22 June 2018  04:53 UTC
Temperature: 28.0°C (82°F)
Dewpoint: 24.0°C (75°F) [RH = 79%]
Pressure (altimeter): 29.97 inches Hg (1015.0 mb)
Winds: from the W (270 degrees) at 9 MPH (8 knots; 4.2 m/s)
Visibility: 10 or more miles (16+ km)
Ceiling: 25000 feet AGL
Clouds: few clouds at 3000 feet AGL
few clouds at 10000 feet AGL
broken clouds at 25000 feet AGL
Present Weather: no significant weather observed at this time
KTPA 220453Z 27008KT 10SM FEW030 FEW100 BKN250 28/24 A2997

Conditions at: KTPA observed 22 June 2018  03:53 UTC
Temperature: 28.0°C (82°F)
Dewpoint: 24.0°C (75°F) [RH = 79%]
Pressure (altimeter): 29.98 inches Hg (1015.3 mb)
Winds: from the W (280 degrees) at 6 MPH (5 knots; 2.6 m/s)
Visibility: 10 or more miles (16+ km)
Ceiling: 25000 feet AGL
Clouds: few clouds at 3000 feet AGL
few clouds at 10000 feet AGL
broken clouds at 25000 feet AGL
Present Weather: no significant weather observed at this time
KTPA 220353Z 28005KT 10SM FEW030 FEW100 BKN250 28/24 A2998

Conditions at: KTPA observed 22 June 2018  02:53 UTC
Temperature: 28.0°C (82°F)
Dewpoint: 24.0°C (75°F) [RH = 79%]
Pressure (altimeter): 29.98 inches Hg (1015.3 mb)
Winds: from the W (280 degrees) at 7 MPH (6 knots; 3.1 m/s)
Visibility: 10 or more miles (16+ km)
Ceiling: 25000 feet AGL
Clouds: few clouds at 3000 feet AGL
few clouds at 10000 feet AGL
broken clouds at 25000 feet AGL
Present Weather: no significant weather observed at this time
KTPA 220253Z 28006KT 10SM FEW030 FEW100 BKN250 28/24 A2998

Conditions at: KTPA observed 22 June 2018  01:53 UTC
Temperature: 28.0°C (82°F)
Dewpoint: 24.0°C (75°F) [RH = 79%]
Pressure (altimeter): 29.97 inches Hg (1015.0 mb)
Winds: from the W (260 degrees) at 9 MPH (8 knots; 4.2 m/s)
Visibility: 10 or more miles (16+ km)
Ceiling: 25000 feet AGL
Clouds: few clouds at 3000 feet AGL
few clouds at 10000 feet AGL
broken clouds at 25000 feet AGL
Present Weather: no significant weather observed at this time
KTPA 220153Z 26008KT 10SM FEW030 FEW100 BKN250 28/24 A2997

Conditions at: KTPA observed 22 June 2018  00:53 UTC
Temperature: 29.0°C (84°F)
Dewpoint: 24.0°C (75°F) [RH = 74%]
Pressure (altimeter): 29.95 inches Hg (1014.3 mb)
Winds: from the W (260 degrees) at 12 MPH (10 knots; 5.2 m/s)
Visibility: 10 or more miles (16+ km)
Ceiling: 25000 feet AGL
Clouds: few clouds at 3000 feet AGL
scattered clouds at 9000 feet AGL
broken clouds at 25000 feet AGL
Present Weather: no significant weather observed at this time
KTPA 220053Z 26010KT 10SM FEW030 SCT090 BKN250 29/24 A2995 RMK CB DSNT-E-SE

Conditions at: KTPA observed 21 June 2018  23:53 UTC
Temperature: 29.0°C (84°F)
Dewpoint: 24.0°C (75°F) [RH = 74%]
Pressure (altimeter): 29.94 inches Hg (1014.0 mb)
Winds: from the W (260 degrees) at 9 MPH (8 knots; 4.2 m/s)
Visibility: 10 or more miles (16+ km)
Ceiling: 25000 feet AGL
Clouds: few clouds at 3000 feet AGL
scattered clouds at 9000 feet AGL
broken clouds at 25000 feet AGL
Present Weather: no significant weather observed at this time
KTPA 212353Z 26008KT 10SM FEW030 SCT090 BKN250 29/24 A2994

Conditions at: KTPA observed 21 June 2018  22:53 UTC
Temperature: 30.0°C (86°F)
Dewpoint: 24.0°C (75°F) [RH = 70%]
Pressure (altimeter): 29.91 inches Hg (1013.0 mb)
Winds: from the NW (310 degrees) at 10 MPH (9 knots; 4.7 m/s)
Visibility: 10 or more miles (16+ km)
Ceiling: 25000 feet AGL
Clouds: scattered clouds at 3000 feet AGL
scattered clouds at 14000 feet AGL
broken clouds at 25000 feet AGL
Present Weather: no significant weather observed at this time
KTPA 212253Z 31009KT 10SM SCT030 SCT140 BKN250 30/24 A2991

Conditions at: KTPA observed 21 June 2018  21:53 UTC
Temperature: 30.0°C (86°F)
Dewpoint: 24.0°C (75°F) [RH = 70%]
Pressure (altimeter): 29.93 inches Hg (1013.6 mb)
Winds: from the WNW (300 degrees) at 9 MPH (8 knots; 4.2 m/s)
gusting to 18 MPH (16 knots; 8.3 m/s)
Visibility: 10 or more miles (16+ km)
Ceiling: 25000 feet AGL
Clouds: scattered clouds at 3000 feet AGL
scattered clouds at 14000 feet AGL
broken clouds at 25000 feet AGL
Present Weather: no significant weather observed at this time
KTPA 212153Z COR 30008G16KT 10SM SCT030 SCT140 BKN250 30/24 A2993

Conditions at: KTPA observed 21 June 2018  20:53 UTC
Temperature: 30.0°C (86°F)
Dewpoint: 24.0°C (75°F) [RH = 70%]
Pressure (altimeter): 29.93 inches Hg (1013.6 mb)
Winds: from the WNW (290 degrees) at 6 MPH (5 knots; 2.6 m/s)
Visibility: 10 or more miles (16+ km)
Ceiling: 11000 feet AGL
Clouds: scattered clouds at 3000 feet AGL
broken clouds at 11000 feet AGL
broken clouds at 25000 feet AGL
Present Weather: no significant weather observed at this time
KTPA 212053Z 29005KT 10SM SCT030 BKN110 BKN250 30/24 A2993